Private Wetterstation Wechselburg
Wetterdaten: Donnerstag, 22.10.2015
Datum Zeit Temp. +2m Bodentemp. Temp.+5cm Temp. Wind Windchill X Diff Temp. Feuchte +2m Feuchte +5cm Sonnenschein Luftdruck Regen Wind Richtung Richtung Sonnenschein Taupunkt Windchill Windben
22.10.2015 00:00 6,7 C 23,1 C 7,8 C 7,6 C 7,6 C 0,9 C 91 % 70 % 0 % 1017,1 hPa 0,0 l/m 0,0 km/h (0 Bft) SW 225 0 min 5,3 C 7,6 C 0,0 km/h (0 Bft)
22.10.2015 00:06 6,7 C 23,1 C 7,9 C 7,6 C 7,6 C 0,9 C 91 % 70 % 0 % 1017,1 hPa 0,0 l/m 0,0 km/h (0 Bft) NW 315 0 min 5,3 C 7,6 C 0,0 km/h (0 Bft)
22.10.2015 00:10 6,7 C 23,1 C 7,9 C 7,6 C 7,6 C 0,9 C 91 % 70 % 0 % 1017,1 hPa 0,0 l/m 0,0 km/h (0 Bft) SO 135 0 min 5,3 C 7,6 C 0,0 km/h (0 Bft)
22.10.2015 00:17 6,7 C 23,1 C 7,9 C 7,6 C 7,6 C 0,9 C 91 % 70 % 0 % 1016,8 hPa 0,0 l/m 0,0 km/h (0 Bft) W-SW 247 0 min 5,3 C 7,6 C 0,0 km/h (0 Bft)
22.10.2015 00:18 6,7 C 23,1 C 7,9 C 7,6 C 7,6 C 0,9 C 91 % 70 % 0 % 1016,8 hPa 0,0 l/m 0,0 km/h (0 Bft) W-SW 247 0 min 5,3 C 7,6 C 0,0 km/h (0 Bft)
22.10.2015 00:19 6,7 C 23,1 C 7,9 C 7,6 C 7,6 C 0,9 C 91 % 70 % 0 % 1016,8 hPa 0,0 l/m 0,0 km/h (0 Bft) W-SW 247 0 min 5,3 C 7,6 C 0,0 km/h (0 Bft)
22.10.2015 00:20 6,7 C 23,1 C 7,9 C 7,6 C 7,6 C 0,9 C 91 % 70 % 0 % 1016,8 hPa 0,0 l/m 0,0 km/h (0 Bft) W-SW 247 0 min 5,3 C 7,6 C 0,0 km/h (0 Bft)
22.10.2015 00:21 6,7 C 23,1 C 7,9 C 7,6 C 7,6 C 0,9 C 91 % 70 % 0 % 1016,8 hPa 0,0 l/m 0,0 km/h (0 Bft) W-SW 247 0 min 5,3 C 7,6 C 0,0 km/h (0 Bft)
22.10.2015 00:22 6,7 C 23,0 C 7,9 C 7,6 C 7,6 C 0,9 C 91 % 70 % 0 % 1016,8 hPa 0,0 l/m 0,2 km/h (0 Bft) S-SO 157 0 min 5,3 C 7,6 C 0,0 km/h (0 Bft)
22.10.2015 00:27 6,7 C 23,1 C 7,9 C 7,7 C 7,7 C 1,0 C 91 % 70 % 0 % 1016,8 hPa 0,0 l/m 0,3 km/h (0 Bft) NO 45 0 min 5,3 C 7,7 C 0,0 km/h (0 Bft)
22.10.2015 00:32 6,7 C 23,0 C 7,8 C 7,7 C 7,7 C 1,0 C 91 % 70 % 0 % 1016,8 hPa 0,0 l/m 0,5 km/h (0 Bft) S 180 0 min 5,3 C 7,7 C 0,0 km/h (0 Bft)
22.10.2015 00:37 6,7 C 23,1 C 7,9 C 7,7 C 7,7 C 1,0 C 91 % 70 % 0 % 1016,8 hPa 0,0 l/m 0,2 km/h (0 Bft) O 90 0 min 5,3 C 7,7 C 0,0 km/h (0 Bft)
22.10.2015 00:42 6,6 C 23,1 C 7,9 C 7,8 C 7,8 C 1,2 C 91 % 70 % 0 % 1016,8 hPa 0,0 l/m 0,0 km/h (0 Bft) O-SO 112 0 min 5,2 C 7,8 C 1,8 km/h (1 Bft)
22.10.2015 00:47 6,5 C 23,1 C 7,9 C 7,7 C 7,7 C 1,2 C 91 % 70 % 0 % 1016,8 hPa 0,0 l/m 0,0 km/h (0 Bft) SO 135 0 min 5,1 C 7,7 C 0,0 km/h (0 Bft)
22.10.2015 00:52 6,5 C 23,1 C 7,7 C 7,7 C 7,7 C 1,2 C 91 % 70 % 0 % 1016,6 hPa 0,0 l/m 0,3 km/h (0 Bft) O-SO 112 0 min 5,1 C 7,7 C 0,0 km/h (0 Bft)
22.10.2015 00:57 6,5 C 23,0 C 7,7 C 7,7 C 7,7 C 1,2 C 91 % 70 % 0 % 1016,6 hPa 0,0 l/m 0,2 km/h (0 Bft) S 180 0 min 5,1 C 7,7 C 0,0 km/h (0 Bft)
22.10.2015 01:02 6,5 C 23,1 C 7,7 C 7,6 C 7,6 C 1,1 C 91 % 70 % 0 % 1016,6 hPa 0,0 l/m 0,0 km/h (0 Bft) O-SO 112 0 min 5,1 C 7,6 C 0,0 km/h (0 Bft)
22.10.2015 01:07 6,5 C 23,0 C 7,7 C 7,6 C 7,6 C 1,1 C 91 % 70 % 0 % 1016,6 hPa 0,0 l/m 0,0 km/h (0 Bft) SW 225 0 min 5,1 C 7,6 C 0,0 km/h (0 Bft)
22.10.2015 01:12 6,5 C 22,9 C 7,7 C 7,6 C 7,6 C 1,1 C 91 % 70 % 0 % 1016,6 hPa 0,0 l/m 0,2 km/h (0 Bft) S 180 0 min 5,1 C 7,6 C 0,0 km/h (0 Bft)
22.10.2015 01:17 6,4 C 22,9 C 7,6 C 7,6 C 7,6 C 1,2 C 91 % 70 % 0 % 1016,6 hPa 0,0 l/m 0,5 km/h (0 Bft) O-SO 112 0 min 5,0 C 7,6 C 3,2 km/h (1 Bft)
22.10.2015 01:22 6,4 C 22,9 C 7,7 C 7,6 C 7,6 C 1,2 C 91 % 70 % 0 % 1016,6 hPa 0,0 l/m 1,1 km/h (1 Bft) S 180 0 min 5,0 C 7,6 C 2,1 km/h (1 Bft)
22.10.2015 01:27 6,4 C 22,9 C 7,6 C 7,6 C 7,6 C 1,2 C 91 % 70 % 0 % 1016,6 hPa 0,0 l/m 0,8 km/h (0 Bft) O-SO 112 0 min 5,0 C 7,6 C 2,3 km/h (1 Bft)
22.10.2015 01:32 6,5 C 22,9 C 7,6 C 7,4 C 7,4 C 0,9 C 91 % 70 % 0 % 1016,8 hPa 0,0 l/m 0,2 km/h (0 Bft) N-NW 337 0 min 5,1 C 7,4 C 0,0 km/h (0 Bft)
22.10.2015 01:37 6,4 C 22,9 C 7,5 C 7,3 C 7,3 C 0,9 C 91 % 70 % 0 % 1016,8 hPa 0,0 l/m 0,2 km/h (0 Bft) O-NO 67 0 min 5,0 C 7,3 C 0,0 km/h (0 Bft)
22.10.2015 01:42 6,3 C 23,0 C 7,2 C 6,9 C 6,9 C 0,6 C 91 % 71 % 0 % 1016,8 hPa 0,0 l/m 0,0 km/h (0 Bft) SO 135 0 min 4,9 C 6,9 C 0,0 km/h (0 Bft)
22.10.2015 01:47 6,1 C 23,0 C 7,0 C 6,6 C 6,6 C 0,5 C 91 % 71 % 0 % 1016,8 hPa 0,0 l/m 0,0 km/h (0 Bft) O-SO 112 0 min 4,7 C 6,6 C 0,0 km/h (0 Bft)
22.10.2015 01:52 6,1 C 23,0 C 6,9 C 6,3 C 6,3 C 0,2 C 91 % 71 % 0 % 1016,3 hPa 0,0 l/m 0,0 km/h (0 Bft) O-NO 67 0 min 4,7 C 6,3 C 0,0 km/h (0 Bft)
22.10.2015 01:57 5,9 C 23,0 C 6,7 C 6,1 C 6,1 C 0,2 C 90 % 71 % 0 % 1016,3 hPa 0,0 l/m 0,0 km/h (0 Bft) O-NO 67 0 min 4,4 C 6,1 C 0,0 km/h (0 Bft)
22.10.2015 02:02 5,7 C 23,0 C 6,5 C 5,7 C 5,7 C 0,0 C 90 % 72 % 0 % 1016,3 hPa 0,0 l/m 0,0 km/h (0 Bft) O-NO 67 0 min 4,2 C 5,7 C 0,0 km/h (0 Bft)
22.10.2015 02:07 5,6 C 23,0 C 6,4 C 5,6 C 5,6 C 0,0 C 90 % 72 % 0 % 1016,3 hPa 0,0 l/m 0,0 km/h (0 Bft) O-NO 67 0 min 4,1 C 5,6 C 0,0 km/h (0 Bft)
22.10.2015 02:12 5,3 C 23,0 C 6,2 C 5,4 C 5,4 C 0,1 C 90 % 72 % 0 % 1017,1 hPa 0,0 l/m 0,0 km/h (0 Bft) O-NO 67 0 min 3,8 C 5,4 C 0,0 km/h (0 Bft)
22.10.2015 02:17 5,3 C 23,1 C 6,1 C 5,3 C 5,3 C 0,0 C 90 % 72 % 0 % 1017,1 hPa 0,0 l/m 0,0 km/h (0 Bft) O-NO 67 0 min 3,8 C 5,3 C 0,0 km/h (0 Bft)
22.10.2015 02:22 5,0 C 23,1 C 6,0 C 5,2 C 5,2 C 0,2 C 90 % 72 % 0 % 1017,1 hPa 0,0 l/m 0,0 km/h (0 Bft) S 180 0 min 3,5 C 5,2 C 0,0 km/h (0 Bft)
22.10.2015 02:27 5,1 C 23,1 C 6,0 C 5,2 C 5,2 C 0,1 C 90 % 72 % 0 % 1017,1 hPa 0,0 l/m 0,0 km/h (0 Bft) SO 135 0 min 3,6 C 5,2 C 0,0 km/h (0 Bft)
22.10.2015 02:32 5,1 C 23,1 C 5,9 C 5,2 C 5,2 C 0,1 C 90 % 72 % 0 % 1016,1 hPa 0,0 l/m 0,0 km/h (0 Bft) O 90 0 min 3,6 C 5,2 C 0,0 km/h (0 Bft)
22.10.2015 02:37 5,1 C 23,0 C 5,8 C 5,2 C 5,2 C 0,1 C 90 % 72 % 0 % 1016,1 hPa 0,0 l/m 0,0 km/h (0 Bft) O-SO 112 0 min 3,6 C 5,2 C 0,0 km/h (0 Bft)
22.10.2015 02:42 4,8 C 23,1 C 5,9 C 5,0 C 5,0 C 0,2 C 90 % 72 % 0 % 1016,1 hPa 0,0 l/m 0,0 km/h (0 Bft) O-SO 112 0 min 3,3 C 5,0 C 0,0 km/h (0 Bft)
22.10.2015 02:47 4,7 C 23,1 C 5,7 C 5,0 C 5,0 C 0,3 C 90 % 72 % 0 % 1016,1 hPa 0,0 l/m 0,0 km/h (0 Bft) O 90 0 min 3,2 C 5,0 C 0,0 km/h (0 Bft)
22.10.2015 02:52 4,6 C 23,1 C 5,6 C 4,8 C 4,8 C 0,2 C 90 % 72 % 0 % 1016,3 hPa 0,0 l/m 0,0 km/h (0 Bft) S 180 0 min 3,1 C 4,8 C 0,0 km/h (0 Bft)
22.10.2015 02:57 4,5 C 23,1 C 5,5 C 4,8 C 4,8 C 0,3 C 90 % 72 % 0 % 1016,3 hPa 0,0 l/m 0,0 km/h (0 Bft) S 180 0 min 3,0 C 4,8 C 0,0 km/h (0 Bft)
22.10.2015 03:02 4,4 C 23,1 C 5,5 C 4,7 C 4,7 C 0,3 C 90 % 72 % 0 % 1016,3 hPa 0,0 l/m 0,0 km/h (0 Bft) S-SW 202 0 min 2,9 C 4,7 C 0,0 km/h (0 Bft)
22.10.2015 03:07 4,4 C 23,1 C 5,3 C 4,7 C 4,7 C 0,3 C 90 % 72 % 0 % 1016,3 hPa 0,0 l/m 0,0 km/h (0 Bft) S-SW 202 0 min 2,9 C 4,7 C 0,0 km/h (0 Bft)
22.10.2015 03:12 4,4 C 23,2 C 5,3 C 4,7 C 4,7 C 0,3 C 90 % 72 % 0 % 1015,8 hPa 0,0 l/m 0,0 km/h (0 Bft) S-SW 202 0 min 2,9 C 4,7 C 0,0 km/h (0 Bft)
22.10.2015 03:17 4,4 C 23,1 C 5,2 C 4,6 C 4,6 C 0,2 C 90 % 72 % 0 % 1015,8 hPa 0,0 l/m 0,0 km/h (0 Bft) O-SO 112 0 min 2,9 C 4,6 C 0,0 km/h (0 Bft)
22.10.2015 03:22 4,3 C 23,1 C 5,1 C 4,6 C 4,6 C 0,3 C 90 % 72 % 0 % 1015,8 hPa 0,0 l/m 0,0 km/h (0 Bft) O 90 0 min 2,8 C 4,6 C 0,0 km/h (0 Bft)
22.10.2015 03:27 4,2 C 23,1 C 5,1 C 4,5 C 4,5 C 0,3 C 90 % 72 % 0 % 1015,8 hPa 0,0 l/m 0,0 km/h (0 Bft) O 90 0 min 2,7 C 4,5 C 0,0 km/h (0 Bft)
22.10.2015 03:32 4,1 C 23,1 C 5,1 C 4,3 C 4,3 C 0,2 C 90 % 72 % 0 % 1015,9 hPa 0,0 l/m 0,0 km/h (0 Bft) SW 225 0 min 2,6 C 4,3 C 0,0 km/h (0 Bft)
22.10.2015 03:37 4,0 C 23,1 C 5,0 C 4,2 C 4,2 C 0,2 C 90 % 72 % 0 % 1015,9 hPa 0,0 l/m 0,0 km/h (0 Bft) SW 225 0 min 2,5 C 4,2 C 0,0 km/h (0 Bft)
22.10.2015 03:42 4,0 C 23,1 C 5,0 C 4,2 C 4,2 C 0,2 C 90 % 72 % 0 % 1015,9 hPa 0,0 l/m 0,0 km/h (0 Bft) NW 315 0 min 2,5 C 4,2 C 0,0 km/h (0 Bft)
22.10.2015 03:47 3,8 C 23,1 C 5,1 C 4,1 C 4,1 C 0,3 C 90 % 71 % 0 % 1015,9 hPa 0,0 l/m 0,0 km/h (0 Bft) SW 225 0 min 2,3 C 4,1 C 0,0 km/h (0 Bft)
22.10.2015 03:52 3,9 C 23,1 C 5,1 C 4,3 C 4,3 C 0,4 C 90 % 71 % 0 % 1015,2 hPa 0,0 l/m 0,0 km/h (0 Bft) SW 225 0 min 2,4 C 4,3 C 0,0 km/h (0 Bft)
22.10.2015 03:57 3,7 C 23,1 C 5,2 C 4,3 C 4,3 C 0,6 C 90 % 71 % 0 % 1015,2 hPa 0,0 l/m 0,0 km/h (0 Bft) W 270 0 min 2,2 C 4,3 C 0,0 km/h (0 Bft)
22.10.2015 04:02 3,7 C 23,1 C 5,3 C 4,2 C 4,2 C 0,5 C 90 % 71 % 0 % 1015,2 hPa 0,0 l/m 0,0 km/h (0 Bft) SW 225 0 min 2,2 C 4,2 C 0,0 km/h (0 Bft)
22.10.2015 04:07 3,7 C 23,1 C 5,2 C 4,2 C 4,2 C 0,5 C 90 % 71 % 0 % 1015,2 hPa 0,0 l/m 0,0 km/h (0 Bft) S-SO 157 0 min 2,2 C 4,2 C 0,0 km/h (0 Bft)
22.10.2015 04:12 3,7 C 23,1 C 5,1 C 4,2 C 4,2 C 0,5 C 90 % 71 % 0 % 1015,4 hPa 0,0 l/m 0,0 km/h (0 Bft) SW 225 0 min 2,2 C 4,2 C 0,0 km/h (0 Bft)
22.10.2015 04:17 3,7 C 23,1 C 5,0 C 4,1 C 4,1 C 0,4 C 90 % 71 % 0 % 1015,4 hPa 0,0 l/m 0,0 km/h (0 Bft) W-NW 292 0 min 2,2 C 4,1 C 0,0 km/h (0 Bft)
22.10.2015 04:22 3,7 C 23,1 C 5,1 C 4,1 C 4,1 C 0,4 C 91 % 71 % 0 % 1015,4 hPa 0,0 l/m 0,0 km/h (0 Bft) NW 315 0 min 2,4 C 4,1 C 0,0 km/h (0 Bft)
22.10.2015 04:27 3,9 C 23,1 C 5,1 C 4,1 C 4,1 C 0,2 C 91 % 71 % 0 % 1015,4 hPa 0,0 l/m 0,0 km/h (0 Bft) NW 315 0 min 2,6 C 4,1 C 0,0 km/h (0 Bft)
22.10.2015 04:32 3,9 C 23,1 C 5,1 C 4,1 C 4,1 C 0,2 C 91 % 71 % 0 % 1016,2 hPa 0,0 l/m 0,0 km/h (0 Bft) N-NW 337 0 min 2,6 C 4,1 C 0,0 km/h (0 Bft)
22.10.2015 04:37 3,7 C 23,1 C 5,1 C 4,0 C 4,0 C 0,3 C 91 % 71 % 0 % 1016,2 hPa 0,0 l/m 0,0 km/h (0 Bft) N-NW 337 0 min 2,4 C 4,0 C 0,0 km/h (0 Bft)
22.10.2015 04:42 3,6 C 23,1 C 4,9 C 4,0 C 4,0 C 0,4 C 91 % 71 % 0 % 1016,2 hPa 0,0 l/m 0,0 km/h (0 Bft) NO 45 0 min 2,3 C 4,0 C 0,0 km/h (0 Bft)
22.10.2015 04:47 3,6 C 23,1 C 4,9 C 4,1 C 4,1 C 0,5 C 91 % 71 % 0 % 1016,2 hPa 0,0 l/m 0,0 km/h (0 Bft) O-NO 67 0 min 2,3 C 4,1 C 0,0 km/h (0 Bft)
22.10.2015 04:52 3,7 C 23,1 C 4,9 C 4,1 C 4,1 C 0,4 C 91 % 71 % 0 % 1015,2 hPa 0,0 l/m 0,0 km/h (0 Bft) NO 45 0 min 2,4 C 4,1 C 0,0 km/h (0 Bft)
22.10.2015 04:57 3,7 C 23,1 C 4,9 C 4,2 C 4,2 C 0,5 C 91 % 71 % 0 % 1015,2 hPa 0,0 l/m 0,0 km/h (0 Bft) O-NO 67 0 min 2,4 C 4,2 C 0,0 km/h (0 Bft)
22.10.2015 05:02 3,7 C 23,1 C 4,9 C 4,3 C 4,3 C 0,6 C 91 % 71 % 0 % 1015,2 hPa 0,0 l/m 0,0 km/h (0 Bft) W 270 0 min 2,4 C 4,3 C 0,0 km/h (0 Bft)
22.10.2015 05:07 3,7 C 23,1 C 4,9 C 4,4 C 4,4 C 0,7 C 91 % 71 % 0 % 1015,2 hPa 0,0 l/m 0,0 km/h (0 Bft) O-NO 67 0 min 2,4 C 4,4 C 0,0 km/h (0 Bft)
22.10.2015 05:12 3,9 C 23,1 C 5,1 C 4,5 C 4,5 C 0,6 C 91 % 71 % 0 % 1015,2 hPa 0,0 l/m 0,0 km/h (0 Bft) O-NO 67 0 min 2,6 C 4,5 C 0,0 km/h (0 Bft)
22.10.2015 05:17 3,8 C 23,1 C 5,2 C 4,5 C 4,5 C 0,7 C 91 % 71 % 0 % 1015,2 hPa 0,0 l/m 0,0 km/h (0 Bft) O-NO 67 0 min 2,5 C 4,5 C 0,0 km/h (0 Bft)
22.10.2015 05:22 4,0 C 23,0 C 5,2 C 4,6 C 4,6 C 0,6 C 91 % 71 % 0 % 1015,2 hPa 0,0 l/m 0,0 km/h (0 Bft) O-SO 112 0 min 2,7 C 4,6 C 0,0 km/h (0 Bft)
22.10.2015 05:27 4,0 C 23,0 C 5,3 C 4,7 C 4,7 C 0,7 C 91 % 71 % 0 % 1015,2 hPa 0,0 l/m 0,0 km/h (0 Bft) O-SO 112 0 min 2,7 C 4,7 C 0,0 km/h (0 Bft)
22.10.2015 05:32 4,1 C 23,0 C 5,3 C 4,8 C 4,8 C 0,7 C 92 % 71 % 0 % 1015,2 hPa 0,0 l/m 0,0 km/h (0 Bft) O-NO 67 0 min 2,9 C 4,8 C 0,0 km/h (0 Bft)
22.10.2015 05:37 4,3 C 23,0 C 5,4 C 4,9 C 4,9 C 0,6 C 92 % 71 % 0 % 1015,2 hPa 0,0 l/m 0,0 km/h (0 Bft) O-NO 67 0 min 3,1 C 4,9 C 0,0 km/h (0 Bft)
22.10.2015 05:42 4,3 C 22,9 C 5,4 C 5,0 C 5,0 C 0,7 C 92 % 71 % 0 % 1015,2 hPa 0,0 l/m 0,0 km/h (0 Bft) W-SW 247 0 min 3,1 C 5,0 C 0,0 km/h (0 Bft)
22.10.2015 05:47 4,3 C 22,9 C 5,4 C 5,0 C 5,0 C 0,7 C 92 % 71 % 0 % 1015,2 hPa 0,0 l/m 0,0 km/h (0 Bft) S 180 0 min 3,1 C 5,0 C 1,8 km/h (1 Bft)
22.10.2015 05:52 4,4 C 22,9 C 5,5 C 5,2 C 5,2 C 0,8 C 92 % 71 % 0 % 1015,7 hPa 0,0 l/m 0,5 km/h (0 Bft) O-SO 112 0 min 3,2 C 5,2 C 3,4 km/h (1 Bft)
22.10.2015 05:57 4,5 C 22,9 C 5,6 C 5,2 C 5,2 C 0,7 C 92 % 71 % 0 % 1015,7 hPa 0,0 l/m 0,6 km/h (0 Bft) W-SW 247 0 min 3,3 C 5,2 C 1,8 km/h (1 Bft)
22.10.2015 06:12 4,6 C 22,9 C 5,7 C 5,4 C 5,4 C 0,8 C 92 % 71 % 0 % 1014,9 hPa 0,0 l/m 0,8 km/h (0 Bft) S-SW 202 0 min 3,4 C 5,4 C 0,0 km/h (0 Bft)
22.10.2015 06:15 4,6 C 22,9 C 5,7 C 5,4 C 5,4 C 0,8 C 92 % 71 % 0 % 1014,9 hPa 0,0 l/m 0,8 km/h (0 Bft) S-SW 202 0 min 3,4 C 5,4 C 0,0 km/h (0 Bft)
22.10.2015 06:20 4,6 C 22,9 C 5,8 C 5,4 C 5,4 C 0,8 C 92 % 71 % 0 % 1014,9 hPa 0,0 l/m 0,6 km/h (0 Bft) S-SW 202 0 min 3,4 C 5,4 C 0,0 km/h (0 Bft)
22.10.2015 06:25 4,7 C 22,9 C 5,8 C 5,4 C 5,4 C 0,7 C 92 % 71 % 0 % 1014,9 hPa 0,0 l/m 0,6 km/h (0 Bft) SO 135 0 min 3,5 C 5,4 C 5,0 km/h (1 Bft)
22.10.2015 06:30 4,6 C 22,9 C 5,9 C 5,4 C 5,4 C 0,8 C 92 % 71 % 0 % 1014,9 hPa 0,0 l/m 0,5 km/h (0 Bft) N-NO 22 0 min 3,4 C 5,4 C 0,0 km/h (0 Bft)
22.10.2015 06:35 4,7 C 22,9 C 5,8 C 5,4 C 5,4 C 0,7 C 92 % 71 % 0 % 1014,8 hPa 0,0 l/m 0,3 km/h (0 Bft) O-SO 112 0 min 3,5 C 5,4 C 0,0 km/h (0 Bft)
22.10.2015 06:41 4,7 C 22,9 C 5,9 C 5,4 C 5,4 C 0,7 C 92 % 71 % 0 % 1014,8 hPa 0,0 l/m 0,2 km/h (0 Bft) N 0 0 min 3,5 C 5,4 C 0,0 km/h (0 Bft)
22.10.2015 06:50 4,8 C 22,9 C 6,0 C 5,4 C 5,4 C 0,6 C 92 % 71 % 0 % 1014,8 hPa 0,0 l/m 0,3 km/h (0 Bft) S 180 0 min 3,6 C 5,4 C 2,1 km/h (1 Bft)
22.10.2015 06:55 4,8 C 22,9 C 6,0 C 5,4 C 5,4 C 0,6 C 92 % 71 % 0 % 1015,6 hPa 0,0 l/m 0,3 km/h (0 Bft) SO 135 0 min 3,6 C 5,4 C 0,0 km/h (0 Bft)
22.10.2015 07:00 4,8 C 22,9 C 5,9 C 5,4 C 5,4 C 0,6 C 92 % 71 % 0 % 1015,6 hPa 0,0 l/m 0,2 km/h (0 Bft) NO 45 0 min 3,6 C 5,4 C 0,0 km/h (0 Bft)
22.10.2015 07:05 4,8 C 22,9 C 5,9 C 5,4 C 5,4 C 0,6 C 92 % 71 % 0 % 1015,6 hPa 0,0 l/m 0,3 km/h (0 Bft) W 270 0 min 3,6 C 5,4 C 0,0 km/h (0 Bft)
22.10.2015 07:10 4,8 C 22,9 C 5,9 C 5,4 C 5,4 C 0,6 C 92 % 71 % 0 % 1015,6 hPa 0,0 l/m 0,6 km/h (0 Bft) SW 225 0 min 3,6 C 5,4 C 0,0 km/h (0 Bft)
22.10.2015 07:15 4,7 C 22,9 C 5,9 C 5,3 C 5,3 C 0,6 C 92 % 71 % 0 % 1015,1 hPa 0,0 l/m 0,3 km/h (0 Bft) SO 135 0 min 3,5 C 5,3 C 0,0 km/h (0 Bft)
22.10.2015 07:20 4,7 C 22,9 C 5,9 C 5,2 C 5,2 C 0,5 C 92 % 71 % 0 % 1015,1 hPa 0,0 l/m 0,0 km/h (0 Bft) N-NW 337 0 min 3,5 C 5,2 C 0,0 km/h (0 Bft)
22.10.2015 07:25 4,7 C 22,9 C 5,9 C 5,2 C 5,2 C 0,5 C 92 % 71 % 0 % 1015,1 hPa 0,0 l/m 0,2 km/h (0 Bft) O-NO 67 0 min 3,5 C 5,2 C 3,1 km/h (1 Bft)
22.10.2015 07:30 4,7 C 22,9 C 5,7 C 5,1 C 5,1 C 0,4 C 92 % 71 % 0 % 1015,1 hPa 0,0 l/m 0,5 km/h (0 Bft) SW 225 0 min 3,5 C 5,1 C 3,7 km/h (1 Bft)
22.10.2015 07:35 4,7 C 22,9 C 5,7 C 5,1 C 5,1 C 0,4 C 92 % 71 % 0 % 1014,7 hPa 0,0 l/m 0,3 km/h (0 Bft) S 180 0 min 3,5 C 5,1 C 0,0 km/h (0 Bft)
22.10.2015 07:40 4,7 C 22,9 C 5,6 C 5,1 C 5,1 C 0,4 C 92 % 71 % 0 % 1014,7 hPa 0,0 l/m 0,3 km/h (0 Bft) S-SO 157 0 min 3,5 C 5,1 C 0,0 km/h (0 Bft)
22.10.2015 07:45 4,5 C 22,9 C 5,7 C 5,0 C 5,0 C 0,5 C 91 % 71 % 0 % 1014,7 hPa 0,0 l/m 0,2 km/h (0 Bft) O-SO 112 0 min 3,2 C 5,0 C 0,0 km/h (0 Bft)
22.10.2015 07:50 4,5 C 22,9 C 5,6 C 5,0 C 5,0 C 0,5 C 91 % 71 % 0 % 1014,7 hPa 0,0 l/m 0,0 km/h (0 Bft) O 90 0 min 3,2 C 5,0 C 0,0 km/h (0 Bft)
22.10.2015 07:55 4,5 C 22,9 C 5,6 C 4,9 C 4,9 C 0,4 C 91 % 71 % 11 % 1014,8 hPa 0,0 l/m 0,0 km/h (0 Bft) O 90 5 min 3,2 C 4,9 C 0,0 km/h (0 Bft)
22.10.2015 08:00 4,5 C 22,9 C 5,5 C 4,9 C 4,9 C 0,4 C 91 % 71 % 11 % 1014,8 hPa 0,0 l/m 0,0 km/h (0 Bft) O-NO 67 5 min 3,2 C 4,9 C 0,0 km/h (0 Bft)
22.10.2015 08:05 4,4 C 22,9 C 5,5 C 4,8 C 4,8 C 0,4 C 91 % 71 % 11 % 1014,8 hPa 0,0 l/m 0,0 km/h (0 Bft) NO 45 0 min 3,1 C 4,8 C 0,0 km/h (0 Bft)
22.10.2015 08:10 4,4 C 22,9 C 5,5 C 4,8 C 4,8 C 0,4 C 91 % 71 % 11 % 1014,8 hPa 0,0 l/m 0,0 km/h (0 Bft) O-NO 67 0 min 3,1 C 4,8 C 0,0 km/h (0 Bft)
22.10.2015 08:15 4,5 C 22,9 C 5,5 C 4,8 C 4,8 C 0,3 C 91 % 71 % 8 % 1015,5 hPa 0,0 l/m 0,0 km/h (0 Bft) N-NO 22 0 min 3,2 C 4,8 C 0,0 km/h (0 Bft)
22.10.2015 08:20 4,4 C 22,9 C 5,5 C 4,9 C 4,9 C 0,5 C 91 % 71 % 13 % 1015,5 hPa 0,0 l/m 0,0 km/h (0 Bft) N 360 0 min 3,1 C 4,9 C 0,0 km/h (0 Bft)
22.10.2015 08:25 4,4 C 22,9 C 5,6 C 5,0 C 5,0 C 0,6 C 91 % 71 % 16 % 1015,5 hPa 0,0 l/m 0,0 km/h (0 Bft) O-SO 112 0 min 3,1 C 5,0 C 0,0 km/h (0 Bft)
22.10.2015 08:30 4,4 C 22,9 C 5,8 C 5,2 C 5,2 C 0,8 C 91 % 71 % 21 % 1015,5 hPa 0,0 l/m 0,0 km/h (0 Bft) O 90 0 min 3,1 C 5,2 C 0,0 km/h (0 Bft)
22.10.2015 08:35 4,5 C 22,9 C 5,8 C 5,4 C 5,4 C 0,9 C 92 % 71 % 24 % 1014,8 hPa 0,0 l/m 0,0 km/h (0 Bft) O-NO 67 0 min 3,3 C 5,4 C 0,0 km/h (0 Bft)
22.10.2015 08:40 4,5 C 22,9 C 6,0 C 5,5 C 5,5 C 1,0 C 92 % 71 % 26 % 1014,8 hPa 0,0 l/m 0,0 km/h (0 Bft) N-NO 22 0 min 3,3 C 5,5 C 0,0 km/h (0 Bft)
22.10.2015 08:45 4,7 C 22,7 C 6,1 C 5,8 C 5,8 C 1,1 C 92 % 71 % 29 % 1014,8 hPa 0,0 l/m 0,0 km/h (0 Bft) O-SO 112 0 min 3,5 C 5,8 C 0,0 km/h (0 Bft)
22.10.2015 08:50 4,8 C 22,7 C 6,2 C 6,1 C 6,1 C 1,3 C 92 % 70 % 34 % 1014,8 hPa 0,0 l/m 0,2 km/h (0 Bft) S-SO 157 0 min 3,6 C 6,1 C 2,1 km/h (1 Bft)
22.10.2015 08:55 4,9 C 22,8 C 6,4 C 6,4 C 6,4 C 1,5 C 92 % 70 % 39 % 1014,6 hPa 0,0 l/m 0,5 km/h (0 Bft) O-SO 112 0 min 3,7 C 6,4 C 0,0 km/h (0 Bft)
22.10.2015 09:00 5,1 C 22,7 C 6,5 C 6,5 C 6,5 C 1,4 C 92 % 70 % 37 % 1014,6 hPa 0,0 l/m 0,3 km/h (0 Bft) N-NO 22 0 min 3,9 C 6,5 C 0,0 km/h (0 Bft)
22.10.2015 09:05 5,1 C 22,6 C 6,7 C 6,6 C 6,6 C 1,5 C 92 % 70 % 39 % 1014,6 hPa 0,0 l/m 1,0 km/h (0 Bft) S-SO 157 0 min 3,9 C 6,6 C 3,2 km/h (1 Bft)
22.10.2015 09:10 5,2 C 22,6 C 6,6 C 6,6 C 6,6 C 1,4 C 92 % 70 % 37 % 1014,6 hPa 0,0 l/m 1,0 km/h (0 Bft) SO 135 0 min 4,0 C 6,6 C 0,0 km/h (0 Bft)
22.10.2015 09:15 5,3 C 22,5 C 6,7 C 6,6 C 6,6 C 1,3 C 92 % 70 % 34 % 1014,7 hPa 0,0 l/m 1,0 km/h (0 Bft) O-NO 67 0 min 4,1 C 6,6 C 0,0 km/h (0 Bft)
22.10.2015 09:20 5,2 C 22,5 C 6,7 C 6,5 C 6,5 C 1,3 C 92 % 70 % 34 % 1014,7 hPa 0,0 l/m 0,5 km/h (0 Bft) SO 135 0 min 4,0 C 6,5 C 0,0 km/h (0 Bft)
22.10.2015 09:25 5,3 C 22,6 C 6,6 C 6,4 C 6,4 C 1,1 C 92 % 70 % 29 % 1014,7 hPa 0,0 l/m 0,2 km/h (0 Bft) W 270 0 min 4,1 C 6,4 C 0,0 km/h (0 Bft)
22.10.2015 09:30 5,3 C 22,6 C 6,7 C 6,4 C 6,4 C 1,1 C 92 % 70 % 29 % 1014,7 hPa 0,0 l/m 0,3 km/h (0 Bft) O-SO 112 0 min 4,1 C 6,4 C 0,0 km/h (0 Bft)
22.10.2015 09:35 5,3 C 22,6 C 6,7 C 6,4 C 6,4 C 1,1 C 92 % 71 % 29 % 1015,2 hPa 0,0 l/m 0,2 km/h (0 Bft) SW 225 0 min 4,1 C 6,4 C 0,0 km/h (0 Bft)
22.10.2015 09:41 5,3 C 22,6 C 6,9 C 6,5 C 6,5 C 1,2 C 92 % 71 % 32 % 1015,2 hPa 0,0 l/m 0,2 km/h (0 Bft) N 0 0 min 4,1 C 6,5 C 0,0 km/h (0 Bft)
22.10.2015 09:50 5,5 C 22,5 C 7,2 C 7,1 C 7,1 C 1,6 C 92 % 71 % 42 % 1015,2 hPa 0,0 l/m 1,4 km/h (1 Bft) S 180 0 min 4,3 C 7,1 C 3,2 km/h (1 Bft)
22.10.2015 09:55 5,7 C 22,5 C 7,5 C 7,9 C 7,9 C 2,2 C 92 % 71 % 58 % 1014,7 hPa 0,0 l/m 1,9 km/h (1 Bft) SW 225 0 min 4,5 C 7,9 C 3,2 km/h (1 Bft)
22.10.2015 10:00 5,9 C 22,5 C 7,9 C 8,2 C 8,2 C 2,3 C 93 % 70 % 61 % 1014,7 hPa 0,0 l/m 1,9 km/h (1 Bft) S-SO 157 0 min 4,9 C 8,2 C 5,3 km/h (1 Bft)
22.10.2015 10:05 6,3 C 22,5 C 8,0 C 8,9 C 8,9 C 2,6 C 93 % 70 % 68 % 1014,7 hPa 0,0 l/m 2,3 km/h (1 Bft) S-SO 157 0 min 5,3 C 8,9 C 9,8 km/h (2 Bft)
22.10.2015 10:10 6,4 C 22,4 C 8,3 C 9,2 C 9,2 C 2,8 C 93 % 71 % 74 % 1014,7 hPa 0,0 l/m 2,6 km/h (1 Bft) S-SO 157 0 min 5,4 C 9,2 C 0,0 km/h (0 Bft)
22.10.2015 10:15 6,7 C 22,4 C 8,4 C 9,8 C 9,8 C 3,1 C 92 % 71 % 82 % 1014,3 hPa 0,0 l/m 2,4 km/h (1 Bft) O-SO 112 0 min 5,5 C 9,8 C 1,6 km/h (1 Bft)
22.10.2015 10:20 6,8 C 22,4 C 8,4 C 10,1 C 10,1 C 3,3 C 92 % 72 % 87 % 1014,3 hPa 0,0 l/m 2,7 km/h (1 Bft) S 180 5 min 5,6 C 10,1 C 12,1 km/h (2 Bft)
22.10.2015 10:25 7,0 C 22,4 C 8,5 C 10,3 C 10,3 C 3,3 C 92 % 73 % 87 % 1014,3 hPa 0,0 l/m 3,5 km/h (1 Bft) NW 315 5 min 5,8 C 10,3 C 3,4 km/h (1 Bft)
22.10.2015 10:30 7,3 C 22,4 C 8,6 C 10,3 C 10,3 C 3,0 C 93 % 73 % 79 % 1014,3 hPa 0,0 l/m 3,7 km/h (1 Bft) NW 315 0 min 6,2 C 10,3 C 3,7 km/h (1 Bft)
22.10.2015 10:35 7,5 C 22,4 C 8,7 C 10,6 C 10,6 C 3,1 C 92 % 75 % 82 % 1014,4 hPa 0,0 l/m 2,3 km/h (1 Bft) O-SO 112 0 min 6,3 C 10,6 C 1,8 km/h (1 Bft)
22.10.2015 10:40 7,6 C 22,4 C 8,8 C 10,6 C 10,6 C 3,0 C 92 % 76 % 79 % 1014,4 hPa 0,0 l/m 2,4 km/h (1 Bft) W 270 0 min 6,4 C 10,6 C 1,6 km/h (1 Bft)
22.10.2015 10:45 7,8 C 22,4 C 8,9 C 10,8 C 10,8 C 3,0 C 92 % 78 % 79 % 1014,4 hPa 0,0 l/m 2,9 km/h (1 Bft) O-SO 112 0 min 6,6 C 10,8 C 2,7 km/h (1 Bft)
22.10.2015 10:50 7,9 C 22,4 C 8,9 C 10,8 C 10,8 C 2,9 C 91 % 79 % 76 % 1014,4 hPa 0,0 l/m 3,5 km/h (1 Bft) SO 135 0 min 6,5 C 10,8 C 7,6 km/h (2 Bft)
22.10.2015 10:55 7,9 C 22,4 C 9,1 C 10,7 C 10,7 C 2,8 C 91 % 81 % 74 % 1014,4 hPa 0,0 l/m 3,2 km/h (1 Bft) S 180 0 min 6,5 C 10,7 C 2,7 km/h (1 Bft)
22.10.2015 11:00 7,9 C 22,4 C 9,1 C 10,8 C 10,8 C 2,9 C 91 % 81 % 76 % 1014,4 hPa 0,0 l/m 2,9 km/h (1 Bft) S-SO 157 0 min 6,5 C 10,8 C 2,9 km/h (1 Bft)
22.10.2015 11:05 8,0 C 22,4 C 9,2 C 10,8 C 10,8 C 2,8 C 90 % 81 % 74 % 1014,4 hPa 0,0 l/m 1,9 km/h (1 Bft) NW 315 0 min 6,5 C 10,8 C 3,4 km/h (1 Bft)
22.10.2015 11:10 8,0 C 22,4 C 9,2 C 10,9 C 10,9 C 2,9 C 90 % 81 % 76 % 1014,4 hPa 0,0 l/m 2,1 km/h (1 Bft) S 180 0 min 6,5 C 10,9 C 2,4 km/h (1 Bft)
22.10.2015 11:15 8,0 C 22,4 C 9,5 C 11,1 C 11,1 C 3,1 C 89 % 82 % 82 % 1014,7 hPa 0,0 l/m 3,4 km/h (1 Bft) S-SO 157 0 min 6,3 C 11,1 C 8,5 km/h (2 Bft)
22.10.2015 11:20 8,1 C 22,4 C 9,6 C 11,2 C 11,2 C 3,1 C 89 % 82 % 82 % 1014,7 hPa 0,0 l/m 3,5 km/h (1 Bft) S 180 0 min 6,4 C 11,2 C 4,3 km/h (1 Bft)
22.10.2015 11:25 8,3 C 22,4 C 9,9 C 11,7 C 11,7 C 3,4 C 89 % 83 % 89 % 1014,7 hPa 0,0 l/m 3,2 km/h (1 Bft) SO 135 5 min 6,6 C 11,7 C 1,8 km/h (1 Bft)
22.10.2015 11:30 8,4 C 22,4 C 9,8 C 11,9 C 11,9 C 3,5 C 89 % 84 % 92 % 1014,7 hPa 0,0 l/m 2,7 km/h (1 Bft) NW 315 5 min 6,7 C 11,9 C 4,8 km/h (1 Bft)
22.10.2015 11:35 8,4 C 22,4 C 10,1 C 12,1 C 12,1 C 3,7 C 88 % 84 % 97 % 1014,5 hPa 0,0 l/m 2,6 km/h (1 Bft) SW 225 5 min 6,5 C 12,1 C 5,0 km/h (1 Bft)
22.10.2015 11:40 8,5 C 22,4 C 10,1 C 12,2 C 12,2 C 3,7 C 88 % 85 % 97 % 1014,5 hPa 0,0 l/m 3,1 km/h (1 Bft) SO 135 5 min 6,6 C 12,2 C 8,0 km/h (2 Bft)
22.10.2015 11:45 8,7 C 22,4 C 10,3 C 12,5 C 12,5 C 3,8 C 87 % 85 % 100 % 1014,5 hPa 0,0 l/m 3,4 km/h (1 Bft) S-SO 157 5 min 6,7 C 12,5 C 2,1 km/h (1 Bft)
22.10.2015 11:50 8,7 C 22,4 C 10,5 C 12,6 C 12,6 C 3,9 C 87 % 85 % 100 % 1014,5 hPa 0,0 l/m 3,4 km/h (1 Bft) SO 135 5 min 6,7 C 12,6 C 1,9 km/h (1 Bft)
22.10.2015 11:55 8,8 C 22,4 C 10,7 C 12,9 C 12,9 C 4,1 C 86 % 86 % 100 % 1014,2 hPa 0,0 l/m 3,5 km/h (1 Bft) SO 135 5 min 6,6 C 12,9 C 12,9 km/h (3 Bft)
22.10.2015 12:00 8,9 C 22,4 C 10,7 C 13,0 C 13,0 C 4,1 C 86 % 86 % 100 % 1014,2 hPa 0,0 l/m 3,4 km/h (1 Bft) S-SO 157 5 min 6,7 C 13,0 C 3,4 km/h (1 Bft)
22.10.2015 12:05 9,1 C 22,4 C 10,9 C 13,3 C 13,3 C 4,2 C 86 % 86 % 100 % 1014,2 hPa 0,0 l/m 3,1 km/h (1 Bft) S 180 5 min 6,9 C 13,3 C 2,1 km/h (1 Bft)
22.10.2015 12:10 9,2 C 22,4 C 10,9 C 13,3 C 13,3 C 4,1 C 85 % 86 % 100 % 1014,2 hPa 0,0 l/m 2,9 km/h (1 Bft) SO 135 5 min 6,8 C 13,3 C 7,1 km/h (2 Bft)
22.10.2015 12:15 9,3 C 22,3 C 11,1 C 13,4 C 13,4 C 4,1 C 85 % 87 % 100 % 1014,4 hPa 0,0 l/m 3,2 km/h (1 Bft) W 270 5 min 6,9 C 13,4 C 3,2 km/h (1 Bft)
22.10.2015 12:20 9,5 C 22,3 C 11,0 C 13,5 C 13,5 C 4,0 C 84 % 87 % 100 % 1014,4 hPa 0,0 l/m 3,2 km/h (1 Bft) S-SW 202 5 min 6,9 C 13,5 C 11,6 km/h (2 Bft)
22.10.2015 12:25 9,5 C 22,4 C 11,1 C 13,4 C 13,4 C 3,9 C 83 % 87 % 100 % 1014,4 hPa 0,0 l/m 2,7 km/h (1 Bft) SO 135 5 min 6,8 C 13,4 C 1,6 km/h (1 Bft)
22.10.2015 12:30 9,6 C 22,4 C 11,1 C 13,3 C 13,3 C 3,7 C 83 % 87 % 97 % 1014,4 hPa 0,0 l/m 3,2 km/h (1 Bft) S 180 5 min 6,9 C 13,3 C 4,8 km/h (1 Bft)
22.10.2015 12:35 9,6 C 22,4 C 10,9 C 13,0 C 13,0 C 3,4 C 82 % 88 % 89 % 1014,2 hPa 0,0 l/m 3,7 km/h (1 Bft) W-SW 247 5 min 6,7 C 13,0 C 5,0 km/h (1 Bft)
22.10.2015 12:41 9,7 C 22,4 C 11,1 C 12,9 C 12,9 C 3,2 C 82 % 88 % 84 % 1014,2 hPa 0,0 l/m 3,1 km/h (1 Bft) N 0 0 min 6,8 C 12,9 C 3,9 km/h (1 Bft)
22.10.2015 12:50 9,8 C 22,4 C 11,3 C 13,4 C 13,4 C 3,6 C 82 % 87 % 95 % 1014,2 hPa 0,0 l/m 2,4 km/h (1 Bft) W-SW 247 9 min 6,9 C 13,4 C 2,9 km/h (1 Bft)
22.10.2015 12:55 10,0 C 22,4 C 11,7 C 14,0 C 14,0 C 4,0 C 82 % 88 % 100 % 1014,7 hPa 0,0 l/m 2,1 km/h (1 Bft) SO 135 5 min 7,1 C 14,0 C 6,9 km/h (2 Bft)
22.10.2015 13:00 10,1 C 22,4 C 11,7 C 14,2 C 14,2 C 4,1 C 82 % 87 % 100 % 1014,7 hPa 0,0 l/m 2,9 km/h (1 Bft) S 180 5 min 7,2 C 14,2 C 9,3 km/h (2 Bft)
22.10.2015 13:05 10,3 C 22,4 C 11,6 C 14,0 C 14,0 C 3,7 C 81 % 87 % 97 % 1014,7 hPa 0,0 l/m 3,9 km/h (1 Bft) S-SO 157 5 min 7,2 C 14,0 C 7,6 km/h (2 Bft)
22.10.2015 13:10 10,3 C 22,4 C 11,6 C 14,0 C 14,0 C 3,7 C 80 % 87 % 97 % 1014,7 hPa 0,0 l/m 4,5 km/h (1 Bft) W 270 5 min 7,0 C 14,0 C 9,7 km/h (2 Bft)
22.10.2015 13:15 10,4 C 22,4 C 11,6 C 13,9 C 13,9 C 3,5 C 81 % 87 % 92 % 1013,9 hPa 0,0 l/m 3,7 km/h (1 Bft) SO 135 5 min 7,3 C 13,9 C 8,0 km/h (2 Bft)
22.10.2015 13:20 10,5 C 22,4 C 11,5 C 13,7 C 13,7 C 3,2 C 80 % 87 % 84 % 1013,9 hPa 0,0 l/m 3,4 km/h (1 Bft) N-NO 22 0 min 7,2 C 13,7 C 4,0 km/h (1 Bft)
22.10.2015 13:25 10,4 C 22,4 C 11,5 C 13,5 C 13,5 C 3,1 C 80 % 87 % 82 % 1013,9 hPa 0,0 l/m 3,2 km/h (1 Bft) O 90 0 min 7,1 C 13,5 C 6,9 km/h (2 Bft)
22.10.2015 13:30 10,4 C 22,4 C 11,5 C 13,4 C 13,4 C 3,0 C 80 % 87 % 79 % 1013,9 hPa 0,0 l/m 2,6 km/h (1 Bft) SO 135 0 min 7,1 C 13,4 C 2,7 km/h (1 Bft)
22.10.2015 13:35 10,4 C 22,4 C 11,5 C 13,3 C 13,3 C 2,9 C 80 % 87 % 76 % 1013,8 hPa 0,0 l/m 2,3 km/h (1 Bft) S-SO 157 0 min 7,1 C 13,3 C 6,9 km/h (2 Bft)
22.10.2015 13:40 10,4 C 22,4 C 11,5 C 13,3 C 13,3 C 2,9 C 80 % 88 % 76 % 1013,8 hPa 0,0 l/m 1,8 km/h (1 Bft) NW 315 0 min 7,1 C 13,3 C 2,6 km/h (1 Bft)
22.10.2015 13:45 10,4 C 22,4 C 11,5 C 13,4 C 13,4 C 3,0 C 80 % 88 % 79 % 1013,8 hPa 0,0 l/m 2,4 km/h (1 Bft) S-SO 157 0 min 7,1 C 13,4 C 4,3 km/h (1 Bft)
22.10.2015 13:50 10,5 C 22,4 C 11,6 C 13,4 C 13,4 C 2,9 C 80 % 87 % 76 % 1013,8 hPa 0,0 l/m 2,7 km/h (1 Bft) O 90 0 min 7,2 C 13,4 C 2,3 km/h (1 Bft)
22.10.2015 13:55 10,7 C 22,5 C 11,7 C 13,4 C 13,4 C 2,7 C 79 % 87 % 71 % 1013,5 hPa 0,0 l/m 2,7 km/h (1 Bft) W-SW 247 0 min 7,2 C 13,4 C 3,7 km/h (1 Bft)
22.10.2015 14:00 10,6 C 22,5 C 11,5 C 13,4 C 13,4 C 2,8 C 79 % 87 % 74 % 1013,5 hPa 0,0 l/m 2,7 km/h (1 Bft) S-SO 157 0 min 7,1 C 13,4 C 3,5 km/h (1 Bft)
22.10.2015 14:05 10,8 C 22,5 C 11,6 C 13,4 C 13,4 C 2,6 C 79 % 87 % 68 % 1013,5 hPa 0,0 l/m 3,9 km/h (1 Bft) S 180 0 min 7,3 C 13,4 C 6,0 km/h (2 Bft)
22.10.2015 14:10 10,8 C 22,5 C 11,7 C 13,5 C 13,5 C 2,7 C 79 % 87 % 71 % 1013,5 hPa 0,0 l/m 3,9 km/h (1 Bft) N-NW 337 0 min 7,3 C 13,5 C 5,8 km/h (2 Bft)
22.10.2015 14:15 10,9 C 22,5 C 11,7 C 13,5 C 13,5 C 2,6 C 79 % 87 % 68 % 1013,4 hPa 0,0 l/m 4,0 km/h (1 Bft) SO 135 0 min 7,4 C 13,5 C 5,1 km/h (1 Bft)
22.10.2015 14:20 10,8 C 22,5 C 11,7 C 13,5 C 13,5 C 2,7 C 79 % 87 % 71 % 1013,4 hPa 0,0 l/m 3,4 km/h (1 Bft) S 180 0 min 7,3 C 13,5 C 9,8 km/h (2 Bft)
22.10.2015 14:25 10,9 C 22,5 C 11,7 C 13,5 C 13,5 C 2,6 C 79 % 87 % 68 % 1013,4 hPa 0,0 l/m 3,1 km/h (1 Bft) NW 315 0 min 7,4 C 13,5 C 6,3 km/h (2 Bft)
22.10.2015 14:30 10,9 C 22,5 C 11,7 C 13,5 C 13,5 C 2,6 C 79 % 87 % 68 % 1013,4 hPa 0,0 l/m 3,9 km/h (1 Bft) S-SO 157 0 min 7,4 C 13,5 C 6,1 km/h (2 Bft)
22.10.2015 14:35 10,9 C 22,5 C 11,7 C 13,3 C 13,3 C 2,4 C 79 % 87 % 63 % 1013,5 hPa 0,0 l/m 4,3 km/h (1 Bft) NW 315 0 min 7,4 C 13,3 C 7,4 km/h (2 Bft)
22.10.2015 14:40 10,8 C 22,5 C 11,6 C 13,1 C 13,1 C 2,3 C 79 % 87 % 61 % 1013,5 hPa 0,0 l/m 3,5 km/h (1 Bft) W-NW 292 0 min 7,3 C 13,1 C 6,1 km/h (2 Bft)
22.10.2015 14:45 10,8 C 22,5 C 11,5 C 13,0 C 13,0 C 2,2 C 79 % 87 % 58 % 1013,5 hPa 0,0 l/m 3,4 km/h (1 Bft) SO 135 0 min 7,3 C 13,0 C 2,1 km/h (1 Bft)
22.10.2015 14:50 10,8 C 22,5 C 11,5 C 13,0 C 13,0 C 2,2 C 79 % 87 % 58 % 1013,5 hPa 0,0 l/m 3,7 km/h (1 Bft) N-NW 337 0 min 7,3 C 13,0 C 1,9 km/h (1 Bft)
22.10.2015 14:55 10,7 C 22,5 C 11,6 C 12,9 C 12,9 C 2,2 C 79 % 87 % 58 % 1013,5 hPa 0,0 l/m 4,2 km/h (1 Bft) W-SW 247 0 min 7,2 C 12,9 C 10,9 km/h (2 Bft)
22.10.2015 15:00 10,7 C 22,6 C 11,7 C 12,9 C 12,9 C 2,2 C 80 % 87 % 58 % 1013,5 hPa 0,0 l/m 4,0 km/h (1 Bft) SW 225 0 min 7,4 C 12,9 C 4,5 km/h (1 Bft)
22.10.2015 15:05 10,7 C 22,6 C 11,6 C 13,1 C 13,1 C 2,4 C 80 % 87 % 63 % 1013,5 hPa 0,0 l/m 3,9 km/h (1 Bft) S 180 0 min 7,4 C 13,1 C 4,8 km/h (1 Bft)
22.10.2015 15:10 10,7 C 22,6 C 11,6 C 13,2 C 13,2 C 2,5 C 80 % 87 % 66 % 1013,5 hPa 0,0 l/m 3,9 km/h (1 Bft) W-SW 247 0 min 7,4 C 13,2 C 5,6 km/h (1 Bft)
22.10.2015 15:15 10,7 C 22,6 C 11,6 C 13,2 C 13,2 C 2,5 C 80 % 87 % 66 % 1013,6 hPa 0,0 l/m 3,2 km/h (1 Bft) O-NO 67 0 min 7,4 C 13,2 C 0,0 km/h (0 Bft)
22.10.2015 15:20 10,6 C 22,6 C 11,6 C 13,1 C 13,1 C 2,5 C 80 % 87 % 66 % 1013,6 hPa 0,0 l/m 2,7 km/h (1 Bft) S 180 0 min 7,3 C 13,1 C 3,4 km/h (1 Bft)
22.10.2015 15:25 10,5 C 22,6 C 11,6 C 13,0 C 13,0 C 2,5 C 81 % 88 % 66 % 1013,6 hPa 0,0 l/m 2,6 km/h (1 Bft) S 180 0 min 7,4 C 13,0 C 7,4 km/h (2 Bft)
22.10.2015 15:30 10,4 C 22,6 C 11,6 C 12,9 C 12,9 C 2,5 C 81 % 88 % 66 % 1013,6 hPa 0,0 l/m 3,2 km/h (1 Bft) N-NW 337 0 min 7,3 C 12,9 C 8,5 km/h (2 Bft)
22.10.2015 15:35 10,4 C 22,6 C 11,5 C 12,9 C 12,9 C 2,5 C 81 % 88 % 66 % 1013,3 hPa 0,0 l/m 2,6 km/h (1 Bft) S 180 0 min 7,3 C 12,9 C 3,1 km/h (1 Bft)
22.10.2015 15:41 10,4 C 22,6 C 11,6 C 12,9 C 12,9 C 2,5 C 81 % 88 % 66 % 1013,3 hPa 0,0 l/m 2,7 km/h (1 Bft) N 0 0 min 7,3 C 12,9 C 4,7 km/h (1 Bft)
22.10.2015 15:50 10,3 C 22,6 C 11,4 C 12,6 C 12,6 C 2,3 C 81 % 88 % 61 % 1013,3 hPa 0,0 l/m 2,7 km/h (1 Bft) W-NW 292 0 min 7,2 C 12,6 C 0,0 km/h (0 Bft)
22.10.2015 15:55 10,3 C 22,6 C 11,2 C 12,4 C 12,4 C 2,1 C 81 % 88 % 55 % 1013,6 hPa 0,0 l/m 2,7 km/h (1 Bft) SW 225 0 min 7,2 C 12,4 C 2,4 km/h (1 Bft)
22.10.2015 16:00 10,1 C 22,6 C 11,2 C 12,2 C 12,2 C 2,1 C 81 % 88 % 55 % 1013,6 hPa 0,0 l/m 3,2 km/h (1 Bft) S-SO 157 0 min 7,0 C 12,2 C 7,7 km/h (2 Bft)
22.10.2015 16:05 10,1 C 22,7 C 11,1 C 12,0 C 12,0 C 1,9 C 81 % 88 % 50 % 1013,6 hPa 0,0 l/m 4,0 km/h (1 Bft) S 180 0 min 7,0 C 12,0 C 13,7 km/h (3 Bft)
22.10.2015 16:10 10,0 C 22,7 C 11,2 C 12,0 C 12,0 C 2,0 C 81 % 88 % 53 % 1013,6 hPa 0,0 l/m 3,1 km/h (1 Bft) SO 135 0 min 6,9 C 12,0 C 1,6 km/h (1 Bft)
22.10.2015 16:15 10,0 C 22,7 C 11,1 C 12,2 C 12,2 C 2,2 C 81 % 88 % 58 % 1013,5 hPa 0,0 l/m 3,1 km/h (1 Bft) S 180 0 min 6,9 C 12,2 C 13,4 km/h (3 Bft)
22.10.2015 16:20 10,1 C 22,7 C 11,1 C 12,2 C 12,2 C 2,1 C 81 % 88 % 55 % 1013,5 hPa 0,0 l/m 3,5 km/h (1 Bft) W-NW 292 0 min 7,0 C 12,2 C 4,3 km/h (1 Bft)
22.10.2015 16:25 10,0 C 22,7 C 11,1 C 12,1 C 12,1 C 2,1 C 81 % 88 % 55 % 1013,5 hPa 0,0 l/m 3,7 km/h (1 Bft) S 180 0 min 6,9 C 12,1 C 5,3 km/h (1 Bft)
22.10.2015 16:30 10,0 C 22,7 C 11,1 C 12,0 C 12,0 C 2,0 C 81 % 88 % 53 % 1013,5 hPa 0,0 l/m 3,5 km/h (1 Bft) W-NW 292 0 min 6,9 C 12,0 C 5,6 km/h (1 Bft)
22.10.2015 16:35 9,9 C 22,7 C 10,9 C 11,9 C 11,9 C 2,0 C 81 % 88 % 53 % 1013,3 hPa 0,0 l/m 4,2 km/h (1 Bft) S 180 5 min 6,8 C 11,9 C 7,9 km/h (2 Bft)
22.10.2015 16:40 9,8 C 22,7 C 10,8 C 11,8 C 11,8 C 2,0 C 81 % 89 % 53 % 1013,3 hPa 0,0 l/m 4,0 km/h (1 Bft) S-SW 202 5 min 6,7 C 11,8 C 9,3 km/h (2 Bft)
22.10.2015 16:45 9,8 C 22,7 C 10,8 C 11,7 C 11,7 C 1,9 C 82 % 89 % 50 % 1013,3 hPa 0,0 l/m 3,4 km/h (1 Bft) W 270 5 min 6,9 C 11,7 C 4,0 km/h (1 Bft)
22.10.2015 16:50 9,7 C 22,7 C 10,7 C 11,6 C 11,6 C 1,9 C 82 % 89 % 50 % 1013,3 hPa 0,0 l/m 3,7 km/h (1 Bft) W-SW 247 5 min 6,8 C 11,6 C 6,8 km/h (2 Bft)
22.10.2015 16:55 9,7 C 22,7 C 10,7 C 11,4 C 11,4 C 1,7 C 82 % 89 % 45 % 1013,6 hPa 0,0 l/m 4,0 km/h (1 Bft) W-NW 292 5 min 6,8 C 11,4 C 3,4 km/h (1 Bft)
22.10.2015 17:00 9,6 C 22,7 C 10,7 C 11,3 C 11,3 C 1,7 C 82 % 89 % 45 % 1013,6 hPa 0,0 l/m 4,0 km/h (1 Bft) W-SW 247 5 min 6,7 C 11,3 C 6,6 km/h (2 Bft)
22.10.2015 17:05 9,5 C 22,8 C 10,5 C 11,2 C 11,2 C 1,7 C 82 % 89 % 45 % 1013,6 hPa 0,0 l/m 2,9 km/h (1 Bft) W-NW 292 5 min 6,6 C 11,2 C 1,8 km/h (1 Bft)
22.10.2015 17:10 9,4 C 22,8 C 10,5 C 11,1 C 11,1 C 1,7 C 83 % 89 % 45 % 1013,6 hPa 0,0 l/m 2,4 km/h (1 Bft) S 180 5 min 6,7 C 11,1 C 1,8 km/h (1 Bft)
22.10.2015 17:15 9,3 C 22,8 C 10,5 C 11,0 C 11,0 C 1,7 C 83 % 89 % 45 % 1013,3 hPa 0,0 l/m 2,3 km/h (1 Bft) W-SW 247 5 min 6,6 C 11,0 C 5,0 km/h (1 Bft)
22.10.2015 17:20 9,3 C 22,8 C 10,4 C 10,9 C 10,9 C 1,6 C 83 % 89 % 42 % 1013,3 hPa 0,0 l/m 2,4 km/h (1 Bft) S-SO 157 5 min 6,6 C 10,9 C 4,8 km/h (1 Bft)
22.10.2015 17:25 9,2 C 22,8 C 10,4 C 10,8 C 10,8 C 1,6 C 84 % 90 % 42 % 1013,3 hPa 0,0 l/m 1,8 km/h (1 Bft) SO 135 5 min 6,6 C 10,8 C 0,0 km/h (0 Bft)
22.10.2015 17:30 9,2 C 22,8 C 10,4 C 10,8 C 10,8 C 1,6 C 84 % 90 % 42 % 1013,3 hPa 0,0 l/m 1,9 km/h (1 Bft) S-SW 202 5 min 6,6 C 10,8 C 8,9 km/h (2 Bft)
22.10.2015 17:35 9,1 C 22,8 C 10,3 C 10,8 C 10,8 C 1,7 C 84 % 90 % 45 % 1013,8 hPa 0,0 l/m 3,1 km/h (1 Bft) SO 135 5 min 6,5 C 10,8 C 1,8 km/h (1 Bft)
22.10.2015 17:40 9,1 C 22,8 C 10,3 C 10,8 C 10,8 C 1,7 C 84 % 90 % 45 % 1013,8 hPa 0,0 l/m 3,2 km/h (1 Bft) W-SW 247 5 min 6,5 C 10,8 C 6,6 km/h (2 Bft)
22.10.2015 17:45 9,1 C 22,8 C 10,3 C 10,7 C 10,7 C 1,6 C 84 % 90 % 42 % 1013,8 hPa 0,0 l/m 2,3 km/h (1 Bft) NW 315 5 min 6,5 C 10,7 C 3,4 km/h (1 Bft)
22.10.2015 17:50 9,1 C 22,8 C 10,3 C 10,7 C 10,7 C 1,6 C 84 % 90 % 42 % 1013,8 hPa 0,0 l/m 1,3 km/h (1 Bft) SW 225 5 min 6,5 C 10,7 C 3,4 km/h (1 Bft)
22.10.2015 17:55 9,1 C 22,8 C 10,1 C 10,6 C 10,6 C 1,5 C 84 % 90 % 0 % 1014,0 hPa 0,0 l/m 1,3 km/h (1 Bft) W-SW 247 0 min 6,5 C 10,6 C 5,3 km/h (1 Bft)
22.10.2015 18:00 9,1 C 22,8 C 10,1 C 10,6 C 10,6 C 1,5 C 84 % 90 % 0 % 1014,0 hPa 0,0 l/m 1,9 km/h (1 Bft) SO 135 0 min 6,5 C 10,6 C 1,8 km/h (1 Bft)
22.10.2015 18:05 9,0 C 22,8 C 10,1 C 10,5 C 10,5 C 1,5 C 84 % 90 % 0 % 1014,0 hPa 0,0 l/m 1,8 km/h (1 Bft) W-SW 247 0 min 6,4 C 10,5 C 2,9 km/h (1 Bft)
22.10.2015 18:10 8,9 C 22,8 C 10,0 C 10,5 C 10,5 C 1,6 C 84 % 90 % 0 % 1014,0 hPa 0,0 l/m 1,6 km/h (1 Bft) S-SW 202 0 min 6,3 C 10,5 C 0,0 km/h (0 Bft)
22.10.2015 18:15 8,9 C 22,8 C 10,0 C 10,4 C 10,4 C 1,5 C 84 % 90 % 0 % 1014,2 hPa 0,0 l/m 1,6 km/h (1 Bft) W-SW 247 0 min 6,3 C 10,4 C 0,0 km/h (0 Bft)
22.10.2015 18:20 8,9 C 22,9 C 10,1 C 10,4 C 10,4 C 1,5 C 84 % 90 % 0 % 1014,2 hPa 0,0 l/m 1,9 km/h (1 Bft) S 180 0 min 6,3 C 10,4 C 6,4 km/h (2 Bft)
22.10.2015 18:25 8,8 C 22,9 C 10,0 C 10,4 C 10,4 C 1,6 C 84 % 90 % 0 % 1014,2 hPa 0,0 l/m 2,1 km/h (1 Bft) SW 225 0 min 6,2 C 10,4 C 0,0 km/h (0 Bft)
22.10.2015 18:30 8,8 C 22,9 C 10,0 C 10,4 C 10,4 C 1,6 C 84 % 90 % 0 % 1014,2 hPa 0,0 l/m 2,3 km/h (1 Bft) W-SW 247 0 min 6,2 C 10,4 C 9,5 km/h (2 Bft)
22.10.2015 18:35 8,8 C 22,9 C 9,9 C 10,2 C 10,2 C 1,4 C 85 % 90 % 0 % 1014,4 hPa 0,0 l/m 2,6 km/h (1 Bft) S 180 0 min 6,4 C 10,2 C 3,4 km/h (1 Bft)
22.10.2015 18:41 8,8 C 22,9 C 9,8 C 10,1 C 10,1 C 1,3 C 85 % 90 % 0 % 1014,4 hPa 0,0 l/m 2,4 km/h (1 Bft) N 0 0 min 6,4 C 10,1 C 1,9 km/h (1 Bft)
22.10.2015 18:50 8,7 C 22,9 C 9,8 C 10,1 C 10,1 C 1,4 C 85 % 90 % 0 % 1014,4 hPa 0,0 l/m 1,3 km/h (1 Bft) W 270 0 min 6,3 C 10,1 C 0,0 km/h (0 Bft)
22.10.2015 18:55 8,7 C 22,9 C 9,8 C 10,1 C 10,1 C 1,4 C 85 % 90 % 0 % 1014,2 hPa 0,0 l/m 0,5 km/h (0 Bft) S-SW 202 0 min 6,3 C 10,1 C 0,0 km/h (0 Bft)
22.10.2015 19:00 8,7 C 22,9 C 9,7 C 10,1 C 10,1 C 1,4 C 86 % 90 % 0 % 1014,2 hPa 0,0 l/m 0,2 km/h (0 Bft) O-NO 67 0 min 6,5 C 10,1 C 0,0 km/h (0 Bft)
22.10.2015 19:05 8,7 C 22,9 C 9,7 C 10,1 C 10,1 C 1,4 C 86 % 90 % 0 % 1014,2 hPa 0,0 l/m 1,1 km/h (1 Bft) O-SO 112 0 min 6,5 C 10,1 C 0,0 km/h (0 Bft)
22.10.2015 19:10 8,7 C 22,9 C 9,7 C 10,1 C 10,1 C 1,4 C 86 % 90 % 0 % 1014,2 hPa 0,0 l/m 1,4 km/h (1 Bft) SO 135 0 min 6,5 C 10,1 C 2,4 km/h (1 Bft)
22.10.2015 19:15 8,7 C 22,9 C 9,7 C 10,1 C 10,1 C 1,4 C 86 % 90 % 0 % 1014,4 hPa 0,0 l/m 1,4 km/h (1 Bft) S 180 0 min 6,5 C 10,1 C 5,5 km/h (1 Bft)
22.10.2015 19:20 8,7 C 22,9 C 9,7 C 10,1 C 10,1 C 1,4 C 86 % 90 % 0 % 1014,4 hPa 0,0 l/m 2,1 km/h (1 Bft) N-NO 22 0 min 6,5 C 10,1 C 7,6 km/h (2 Bft)
22.10.2015 19:25 8,6 C 23,0 C 9,7 C 10,0 C 10,0 C 1,4 C 86 % 90 % 0 % 1014,4 hPa 0,0 l/m 2,7 km/h (1 Bft) W 270 0 min 6,4 C 10,0 C 1,9 km/h (1 Bft)
22.10.2015 19:30 8,6 C 23,0 C 9,6 C 9,9 C 9,9 C 1,3 C 86 % 90 % 0 % 1014,4 hPa 0,0 l/m 2,9 km/h (1 Bft) S 180 0 min 6,4 C 9,9 C 3,4 km/h (1 Bft)
22.10.2015 19:35 8,7 C 23,2 C 9,6 C 9,7 C 9,7 C 1,0 C 86 % 90 % 0 % 1014,6 hPa 0,0 l/m 1,4 km/h (1 Bft) O 90 0 min 6,5 C 9,7 C 0,0 km/h (0 Bft)
22.10.2015 19:40 8,6 C 23,2 C 9,6 C 9,6 C 9,6 C 1,0 C 87 % 90 % 0 % 1014,6 hPa 0,0 l/m 1,4 km/h (1 Bft) SW 225 0 min 6,6 C 9,6 C 4,2 km/h (1 Bft)
22.10.2015 19:45 8,5 C 23,3 C 9,5 C 9,5 C 9,5 C 1,0 C 87 % 90 % 0 % 1014,6 hPa 0,0 l/m 1,9 km/h (1 Bft) NW 315 0 min 6,5 C 9,5 C 2,1 km/h (1 Bft)
22.10.2015 19:50 8,5 C 23,3 C 9,5 C 9,4 C 9,4 C 0,9 C 87 % 90 % 0 % 1014,6 hPa 0,0 l/m 2,1 km/h (1 Bft) W-SW 247 0 min 6,5 C 9,4 C 2,3 km/h (1 Bft)
22.10.2015 19:55 8,5 C 23,3 C 9,4 C 9,4 C 9,4 C 0,9 C 87 % 90 % 0 % 1014,9 hPa 0,0 l/m 1,4 km/h (1 Bft) NW 315 0 min 6,5 C 9,4 C 2,6 km/h (1 Bft)
22.10.2015 20:00 8,5 C 23,3 C 9,5 C 9,4 C 9,4 C 0,9 C 87 % 90 % 0 % 1014,9 hPa 0,0 l/m 1,6 km/h (1 Bft) S-SW 202 0 min 6,5 C 9,4 C 0,0 km/h (0 Bft)
22.10.2015 20:05 8,4 C 23,3 C 9,4 C 9,4 C 9,4 C 1,0 C 87 % 90 % 0 % 1014,9 hPa 0,0 l/m 1,8 km/h (1 Bft) S-SO 157 0 min 6,4 C 9,4 C 3,2 km/h (1 Bft)
22.10.2015 20:10 8,4 C 23,3 C 9,4 C 9,4 C 9,4 C 1,0 C 88 % 90 % 0 % 1014,9 hPa 0,0 l/m 1,3 km/h (1 Bft) N-NW 337 0 min 6,5 C 9,4 C 0,0 km/h (0 Bft)
22.10.2015 20:15 8,4 C 23,3 C 9,3 C 9,3 C 9,3 C 0,9 C 88 % 89 % 0 % 1015,6 hPa 0,0 l/m 1,6 km/h (1 Bft) S-SO 157 0 min 6,5 C 9,3 C 2,1 km/h (1 Bft)
22.10.2015 20:20 8,4 C 23,3 C 9,4 C 9,3 C 9,3 C 0,9 C 88 % 89 % 0 % 1015,6 hPa 0,0 l/m 1,8 km/h (1 Bft) S-SW 202 0 min 6,5 C 9,3 C 7,4 km/h (2 Bft)
22.10.2015 20:25 8,4 C 23,3 C 9,3 C 9,3 C 9,3 C 0,9 C 88 % 89 % 0 % 1015,6 hPa 0,0 l/m 1,8 km/h (1 Bft) SW 225 0 min 6,5 C 9,3 C 3,7 km/h (1 Bft)
22.10.2015 20:30 8,4 C 23,3 C 9,4 C 9,4 C 9,4 C 1,0 C 88 % 89 % 0 % 1015,6 hPa 0,0 l/m 1,6 km/h (1 Bft) S-SO 157 0 min 6,5 C 9,4 C 4,5 km/h (1 Bft)
22.10.2015 20:35 8,4 C 23,3 C 9,3 C 9,4 C 9,4 C 1,0 C 88 % 89 % 0 % 1015,1 hPa 0,0 l/m 1,3 km/h (1 Bft) S 180 0 min 6,5 C 9,4 C 1,8 km/h (1 Bft)
22.10.2015 20:40 8,4 C 23,3 C 9,3 C 9,4 C 9,4 C 1,0 C 88 % 88 % 0 % 1015,1 hPa 0,0 l/m 1,4 km/h (1 Bft) S-SO 157 0 min 6,5 C 9,4 C 0,0 km/h (0 Bft)
22.10.2015 20:45 8,4 C 23,3 C 9,3 C 9,4 C 9,4 C 1,0 C 89 % 88 % 0 % 1015,1 hPa 0,0 l/m 1,3 km/h (1 Bft) S-SW 202 0 min 6,7 C 9,4 C 0,0 km/h (0 Bft)
22.10.2015 20:50 8,5 C 23,3 C 9,3 C 9,4 C 9,4 C 0,9 C 89 % 88 % 0 % 1015,1 hPa 0,0 l/m 1,6 km/h (1 Bft) W-SW 247 0 min 6,8 C 9,4 C 2,4 km/h (1 Bft)
22.10.2015 20:55 8,5 C 23,3 C 9,4 C 9,4 C 9,4 C 0,9 C 89 % 88 % 0 % 1015,2 hPa 0,0 l/m 1,4 km/h (1 Bft) S-SO 157 0 min 6,8 C 9,4 C 0,0 km/h (0 Bft)
22.10.2015 21:00 8,5 C 23,3 C 9,3 C 9,4 C 9,4 C 0,9 C 89 % 87 % 0 % 1015,2 hPa 0,0 l/m 1,8 km/h (1 Bft) NW 315 0 min 6,8 C 9,4 C 2,7 km/h (1 Bft)
22.10.2015 21:05 8,5 C 23,3 C 9,3 C 9,4 C 9,4 C 0,9 C 89 % 87 % 0 % 1015,2 hPa 0,0 l/m 1,9 km/h (1 Bft) SW 225 0 min 6,8 C 9,4 C 4,3 km/h (1 Bft)
22.10.2015 21:10 8,5 C 23,3 C 9,3 C 9,4 C 9,4 C 0,9 C 89 % 87 % 0 % 1015,2 hPa 0,0 l/m 1,6 km/h (1 Bft) S 180 0 min 6,8 C 9,4 C 3,7 km/h (1 Bft)
22.10.2015 21:15 8,5 C 23,4 C 9,3 C 9,4 C 9,4 C 0,9 C 89 % 87 % 0 % 1016,1 hPa 0,0 l/m 1,0 km/h (0 Bft) S 180 0 min 6,8 C 9,4 C 0,0 km/h (0 Bft)
22.10.2015 21:20 8,5 C 23,4 C 9,3 C 9,4 C 9,4 C 0,9 C 89 % 87 % 0 % 1016,1 hPa 0,0 l/m 1,1 km/h (1 Bft) SW 225 0 min 6,8 C 9,4 C 0,0 km/h (0 Bft)
22.10.2015 21:25 8,5 C 23,4 C 9,3 C 9,4 C 9,4 C 0,9 C 89 % 87 % 0 % 1016,1 hPa 0,0 l/m 1,3 km/h (1 Bft) S 180 0 min 6,8 C 9,4 C 0,0 km/h (0 Bft)
22.10.2015 21:30 8,5 C 23,3 C 9,3 C 9,4 C 9,4 C 0,9 C 89 % 87 % 0 % 1016,1 hPa 0,0 l/m 1,0 km/h (0 Bft) S 180 0 min 6,8 C 9,4 C 4,2 km/h (1 Bft)
22.10.2015 21:35 8,5 C 23,3 C 9,3 C 9,4 C 9,4 C 0,9 C 89 % 86 % 0 % 1015,6 hPa 0,0 l/m 1,4 km/h (1 Bft) W-SW 247 0 min 6,8 C 9,4 C 2,1 km/h (1 Bft)
22.10.2015 21:41 8,6 C 23,3 C 9,3 C 9,4 C 9,4 C 0,8 C 89 % 86 % 0 % 1015,6 hPa 0,0 l/m 1,9 km/h (1 Bft) N 0 0 min 6,9 C 9,4 C 0,0 km/h (0 Bft)
22.10.2015 21:50 8,6 C 23,3 C 9,3 C 9,4 C 9,4 C 0,8 C 89 % 86 % 0 % 1015,6 hPa 0,0 l/m 1,3 km/h (1 Bft) W-SW 247 0 min 6,9 C 9,4 C 2,7 km/h (1 Bft)
22.10.2015 21:55 8,7 C 23,3 C 9,3 C 9,4 C 9,4 C 0,7 C 90 % 86 % 0 % 1015,8 hPa 0,0 l/m 1,6 km/h (1 Bft) NW 315 0 min 7,2 C 9,4 C 3,5 km/h (1 Bft)
22.10.2015 22:00 8,6 C 23,4 C 9,3 C 9,4 C 9,4 C 0,8 C 90 % 86 % 0 % 1015,8 hPa 0,0 l/m 1,4 km/h (1 Bft) S 180 0 min 7,1 C 9,4 C 2,3 km/h (1 Bft)
22.10.2015 22:05 8,7 C 23,4 C 9,3 C 9,5 C 9,5 C 0,8 C 90 % 86 % 0 % 1015,8 hPa 0,0 l/m 1,3 km/h (1 Bft) S-SW 202 0 min 7,2 C 9,5 C 2,4 km/h (1 Bft)
22.10.2015 22:10 8,7 C 23,4 C 9,3 C 9,5 C 9,5 C 0,8 C 90 % 85 % 0 % 1015,8 hPa 0,0 l/m 1,1 km/h (1 Bft) NW 315 0 min 7,2 C 9,5 C 1,6 km/h (1 Bft)
22.10.2015 22:15 8,7 C 23,4 C 9,3 C 9,4 C 9,4 C 0,7 C 90 % 85 % 0 % 1016,0 hPa 0,0 l/m 1,1 km/h (1 Bft) O-NO 67 0 min 7,2 C 9,4 C 2,6 km/h (1 Bft)
22.10.2015 22:20 8,7 C 23,4 C 9,3 C 9,4 C 9,4 C 0,7 C 90 % 85 % 0 % 1016,0 hPa 0,0 l/m 1,3 km/h (1 Bft) S-SW 202 0 min 7,2 C 9,4 C 3,1 km/h (1 Bft)
22.10.2015 22:25 8,6 C 23,4 C 9,3 C 9,5 C 9,5 C 0,9 C 90 % 85 % 0 % 1016,0 hPa 0,0 l/m 1,3 km/h (1 Bft) W-SW 247 0 min 7,1 C 9,5 C 0,0 km/h (0 Bft)
22.10.2015 22:30 8,7 C 23,4 C 9,2 C 9,5 C 9,5 C 0,8 C 90 % 85 % 0 % 1016,0 hPa 0,0 l/m 1,0 km/h (0 Bft) SW 225 0 min 7,2 C 9,5 C 6,9 km/h (2 Bft)
22.10.2015 22:35 8,7 C 23,4 C 9,2 C 9,5 C 9,5 C 0,8 C 90 % 85 % 0 % 1016,1 hPa 0,0 l/m 1,0 km/h (0 Bft) W 270 0 min 7,2 C 9,5 C 1,6 km/h (1 Bft)
22.10.2015 22:40 8,7 C 23,4 C 9,2 C 9,5 C 9,5 C 0,8 C 90 % 85 % 0 % 1016,1 hPa 0,0 l/m 1,4 km/h (1 Bft) SW 225 0 min 7,2 C 9,5 C 2,3 km/h (1 Bft)
22.10.2015 22:45 8,7 C 23,4 C 9,2 C 9,5 C 9,5 C 0,8 C 90 % 85 % 0 % 1016,1 hPa 0,0 l/m 1,8 km/h (1 Bft) S 180 0 min 7,2 C 9,5 C 3,9 km/h (1 Bft)
22.10.2015 22:50 8,7 C 23,4 C 9,3 C 9,5 C 9,5 C 0,8 C 90 % 85 % 0 % 1016,1 hPa 0,0 l/m 1,6 km/h (1 Bft) O-NO 67 0 min 7,2 C 9,5 C 2,6 km/h (1 Bft)
22.10.2015 22:55 8,8 C 23,4 C 9,3 C 9,6 C 9,6 C 0,8 C 90 % 85 % 0 % 1015,8 hPa 0,0 l/m 1,9 km/h (1 Bft) W-SW 247 0 min 7,3 C 9,6 C 2,4 km/h (1 Bft)
22.10.2015 23:00 8,8 C 23,4 C 9,3 C 9,6 C 9,6 C 0,8 C 90 % 84 % 0 % 1015,8 hPa 0,0 l/m 2,1 km/h (1 Bft) S 180 0 min 7,3 C 9,6 C 2,1 km/h (1 Bft)
22.10.2015 23:05 8,8 C 23,4 C 9,3 C 9,6 C 9,6 C 0,8 C 91 % 84 % 0 % 1015,8 hPa 0,0 l/m 1,6 km/h (1 Bft) W 270 0 min 7,4 C 9,6 C 3,7 km/h (1 Bft)
22.10.2015 23:10 8,8 C 23,5 C 9,3 C 9,6 C 9,6 C 0,8 C 91 % 84 % 0 % 1015,8 hPa 0,0 l/m 1,8 km/h (1 Bft) SW 225 0 min 7,4 C 9,6 C 5,5 km/h (1 Bft)
22.10.2015 23:15 8,8 C 23,5 C 9,2 C 9,6 C 9,6 C 0,8 C 91 % 84 % 0 % 1016,2 hPa 0,0 l/m 1,4 km/h (1 Bft) W-SW 247 0 min 7,4 C 9,6 C 2,1 km/h (1 Bft)
22.10.2015 23:20 8,9 C 23,5 C 9,3 C 9,6 C 9,6 C 0,7 C 91 % 84 % 0 % 1016,2 hPa 0,0 l/m 1,4 km/h (1 Bft) W-SW 247 0 min 7,5 C 9,6 C 0,0 km/h (0 Bft)
22.10.2015 23:25 8,9 C 23,5 C 9,3 C 9,6 C 9,6 C 0,7 C 91 % 84 % 0 % 1016,2 hPa 0,0 l/m 1,1 km/h (1 Bft) S 180 0 min 7,5 C 9,6 C 5,8 km/h (2 Bft)
22.10.2015 23:30 8,8 C 23,5 C 9,2 C 9,6 C 9,6 C 0,8 C 91 % 83 % 0 % 1016,2 hPa 0,0 l/m 1,4 km/h (1 Bft) W 270 0 min 7,4 C 9,6 C 1,6 km/h (1 Bft)
22.10.2015 23:35 8,8 C 23,5 C 9,3 C 9,6 C 9,6 C 0,8 C 91 % 83 % 0 % 1016,9 hPa 0,0 l/m 1,8 km/h (1 Bft) SW 225 0 min 7,4 C 9,6 C 0,0 km/h (0 Bft)
22.10.2015 23:40 8,8 C 23,5 C 9,3 C 9,6 C 9,6 C 0,8 C 91 % 83 % 0 % 1016,9 hPa 0,0 l/m 1,1 km/h (1 Bft) S-SW 202 0 min 7,4 C 9,6 C 0,0 km/h (0 Bft)
22.10.2015 23:45 8,8 C 23,5 C 9,3 C 9,7 C 9,7 C 0,9 C 91 % 83 % 0 % 1016,9 hPa 0,0 l/m 1,3 km/h (1 Bft) W-SW 247 0 min 7,4 C 9,7 C 5,3 km/h (1 Bft)
22.10.2015 23:50 8,9 C 23,5 C 9,3 C 9,7 C 9,7 C 0,8 C 91 % 83 % 0 % 1016,9 hPa 0,0 l/m 1,3 km/h (1 Bft) W-SW 247 0 min 7,5 C 9,7 C 2,3 km/h (1 Bft)
22.10.2015 23:55 8,9 C 23,5 C 9,3 C 9,7 C 9,7 C 0,8 C 91 % 83 % 0 % 1016,5 hPa 0,0 l/m 1,0 km/h (0 Bft) SW 225 0 min 7,5 C 9,7 C 1,6 km/h (1 Bft)
_ Min-Zeit 04:42 12:15 04:42 04:37 04:37 02:02 13:55 00:00 00:00 15:35 - 00:00 - - - 03:57 04:37 00:00
Minimum _ 3,6 C 22,3 C 4,9 C 4,0 C 4,0 C 0,0 C 79 % 70 % 0 % 1013,3 hPa - 0,0 km/h (0 Bft) - - - 2,2 C 4,0 C 0,0 km/h (0 Bft)
_ Max-Zeit 14:15 23:10 12:55 13:00 13:00 12:05 10:00 17:25 11:45 00:00 00:00 13:10 - - 12:50 23:20 13:00 16:05
Maximum _ 10,9 C 23,5 C 11,7 C 14,2 C 14,2 C 4,2 C 93 % 90 % 100 % 1017,1 hPa 0,0 l/m 4,5 km/h
W (1 Bft)
- - 9 min 7,5 C 14,2 C 13,7 km/h
S (3 Bft)
Durchschnitt _ 7,4 C 22,9 C 8,5 C 8,8 C 8,8 C 1,4 C 88 % 80 % 26 % 1015,0 hPa #0,0 l/m 1,5 km/h (1 Bft) S - #3:29 h 5,5 C 8,8 C 2,4 km/h (1 Bft)
2015 www.wetterstation-wechselburg.de